sensor_id;sensor_type;location;lat;lon;timestamp;pressure;altitude;pressure_sealevel;temperature;humidity
44457;BME280;30159;49.316;8.558;2022-10-18T00:02:01;101238.13;;;17.34;100.00
44457;BME280;30159;49.316;8.558;2022-10-18T00:04:28;101196.03;;;17.13;100.00
44457;BME280;30159;49.316;8.558;2022-10-18T00:06:54;101237.81;;;17.49;100.00
44457;BME280;30159;49.316;8.558;2022-10-18T00:09:21;101234.38;;;17.58;100.00
44457;BME280;30159;49.316;8.558;2022-10-18T00:11:47;101239.72;;;17.63;100.00
44457;BME280;30159;49.316;8.558;2022-10-18T00:14:14;101236.38;;;17.66;100.00
44457;BME280;30159;49.316;8.558;2022-10-18T00:16:42;101238.59;;;17.64;100.00
44457;BME280;30159;49.316;8.558;2022-10-18T00:19:08;101240.72;;;17.67;100.00
44457;BME280;30159;49.316;8.558;2022-10-18T00:21:35;101243.47;;;17.67;100.00
44457;BME280;30159;49.316;8.558;2022-10-18T00:24:02;101205.09;;;17.49;100.00
44457;BME280;30159;49.316;8.558;2022-10-18T00:26:29;101247.97;;;17.85;100.00
44457;BME280;30159;49.316;8.558;2022-10-18T00:28:58;101241.53;;;17.81;100.00
44457;BME280;30159;49.316;8.558;2022-10-18T00:31:27;101254.06;;;17.82;100.00
44457;BME280;30159;49.316;8.558;2022-10-18T00:33:57;101244.75;;;17.83;100.00
44457;BME280;30159;49.316;8.558;2022-10-18T00:36:25;101106.91;;;16.99;100.00
44457;BME280;30159;49.316;8.558;2022-10-18T00:38:52;101250.09;;;17.75;100.00
44457;BME280;30159;49.316;8.558;2022-10-18T00:41:23;101246.19;;;17.67;100.00
44457;BME280;30159;49.316;8.558;2022-10-18T00:43:51;101241.19;;;17.69;100.00
44457;BME280;30159;49.316;8.558;2022-10-18T00:46:19;101239.59;;;17.68;100.00
44457;BME280;30159;49.316;8.558;2022-10-18T00:48:45;101234.84;;;17.60;100.00
44457;BME280;30159;49.316;8.558;2022-10-18T00:51:14;101193.28;;;17.40;100.00
44457;BME280;30159;49.316;8.558;2022-10-18T00:53:42;101247.38;;;17.75;100.00
44457;BME280;30159;49.316;8.558;2022-10-18T00:56:08;101249.38;;;17.83;100.00
44457;BME280;30159;49.316;8.558;2022-10-18T00:58:35;101247.38;;;17.75;100.00
44457;BME280;30159;49.316;8.558;2022-10-18T01:01:01;101241.00;;;17.79;100.00
44457;BME280;30159;49.316;8.558;2022-10-18T01:03:28;101207.81;;;17.49;100.00
44457;BME280;30159;49.316;8.558;2022-10-18T01:05:55;101207.31;;;17.47;100.00
44457;BME280;30159;49.316;8.558;2022-10-18T01:08:42;101233.47;;;17.62;100.00
44457;BME280;30159;49.316;8.558;2022-10-18T01:11:21;101236.16;;;17.76;100.00
44457;BME280;30159;49.316;8.558;2022-10-18T01:14:02;101233.72;;;17.75;100.00
44457;BME280;30159;49.316;8.558;2022-10-18T01:16:36;101179.03;;;17.43;100.00
44457;BME280;30159;49.316;8.558;2022-10-18T01:19:25;101228.56;;;17.73;100.00
44457;BME280;30159;49.316;8.558;2022-10-18T01:22:01;101231.63;;;17.72;100.00
44457;BME280;30159;49.316;8.558;2022-10-18T01:24:45;101233.44;;;17.76;100.00
44457;BME280;30159;49.316;8.558;2022-10-18T01:27:28;101228.56;;;17.73;100.00
44457;BME280;30159;49.316;8.558;2022-10-18T01:30:33;101238.81;;;17.81;100.00
44457;BME280;30159;49.316;8.558;2022-10-18T01:33:04;101226.22;;;17.80;100.00
44457;BME280;30159;49.316;8.558;2022-10-18T01:35:36;101230.63;;;17.67;100.00
44457;BME280;30159;49.316;8.558;2022-10-18T01:38:09;101229.38;;;17.74;100.00
44457;BME280;30159;49.316;8.558;2022-10-18T01:40:38;101226.66;;;17.60;100.00
44457;BME280;30159;49.316;8.558;2022-10-18T01:43:08;101224.06;;;17.55;100.00
44457;BME280;30159;49.316;8.558;2022-10-18T01:45:37;101221.72;;;17.62;100.00
44457;BME280;30159;49.316;8.558;2022-10-18T01:48:04;101157.56;;;17.14;100.00
44457;BME280;30159;49.316;8.558;2022-10-18T01:50:33;101215.88;;;17.55;100.00
44457;BME280;30159;49.316;8.558;2022-10-18T01:53:00;101220.13;;;17.61;100.00
44457;BME280;30159;49.316;8.558;2022-10-18T01:55:31;101219.09;;;17.57;100.00
44457;BME280;30159;49.316;8.558;2022-10-18T01:58:03;101211.72;;;17.57;100.00
44457;BME280;30159;49.316;8.558;2022-10-18T02:00:37;101217.38;;;17.61;100.00
44457;BME280;30159;49.316;8.558;2022-10-18T02:03:10;101204.03;;;17.59;100.00
44457;BME280;30159;49.316;8.558;2022-10-18T02:05:45;101207.91;;;17.58;100.00
44457;BME280;30159;49.316;8.558;2022-10-18T02:08:17;101210.00;;;17.61;100.00
44457;BME280;30159;49.316;8.558;2022-10-18T02:10:51;101208.03;;;17.53;100.00
44457;BME280;30159;49.316;8.558;2022-10-18T02:13:20;101196.47;;;17.56;100.00
44457;BME280;30159;49.316;8.558;2022-10-18T02:15:53;101192.56;;;17.48;100.00
44457;BME280;30159;49.316;8.558;2022-10-18T02:18:26;101194.47;;;17.48;100.00
44457;BME280;30159;49.316;8.558;2022-10-18T02:20:55;101191.81;;;17.57;100.00
44457;BME280;30159;49.316;8.558;2022-10-18T02:23:23;101196.66;;;17.60;100.00
44457;BME280;30159;49.316;8.558;2022-10-18T02:25:52;101144.94;;;17.32;100.00
44457;BME280;30159;49.316;8.558;2022-10-18T02:28:19;101189.81;;;17.62;100.00
44457;BME280;30159;49.316;8.558;2022-10-18T02:30:52;101190.81;;;17.53;100.00
44457;BME280;30159;49.316;8.558;2022-10-18T02:33:29;101196.09;;;17.49;100.00
44457;BME280;30159;49.316;8.558;2022-10-18T02:36:01;101205.97;;;17.59;100.00
44457;BME280;30159;49.316;8.558;2022-10-18T02:38:30;101198.78;;;17.63;100.00
44457;BME280;30159;49.316;8.558;2022-10-18T02:40:57;101202.75;;;17.57;100.00
44457;BME280;30159;49.316;8.558;2022-10-18T02:43:24;101201.56;;;17.49;100.00
44457;BME280;30159;49.316;8.558;2022-10-18T02:45:53;101200.94;;;17.52;100.00
44457;BME280;30159;49.316;8.558;2022-10-18T02:48:19;101202.19;;;17.46;100.00
44457;BME280;30159;49.316;8.558;2022-10-18T02:50:46;101194.78;;;17.46;100.00
44457;BME280;30159;49.316;8.558;2022-10-18T02:53:12;101195.50;;;17.38;100.00
44457;BME280;30159;49.316;8.558;2022-10-18T02:55:39;101199.34;;;17.37;100.00
44457;BME280;30159;49.316;8.558;2022-10-18T02:58:05;101151.63;;;16.98;100.00
44457;BME280;30159;49.316;8.558;2022-10-18T03:00:32;101206.53;;;17.33;100.00
44457;BME280;30159;49.316;8.558;2022-10-18T03:03:00;101206.22;;;17.35;100.00
44457;BME280;30159;49.316;8.558;2022-10-18T03:05:26;101207.66;;;17.32;100.00
44457;BME280;30159;49.316;8.558;2022-10-18T03:07:55;101211.69;;;17.21;100.00
44457;BME280;30159;49.316;8.558;2022-10-18T03:10:21;101210.97;;;17.29;100.00
44457;BME280;30159;49.316;8.558;2022-10-18T03:12:48;101213.28;;;17.36;100.00
44457;BME280;30159;49.316;8.558;2022-10-18T03:15:15;101192.72;;;17.30;100.00
44457;BME280;30159;49.316;8.558;2022-10-18T03:17:41;101199.94;;;17.34;100.00
44457;BME280;30159;49.316;8.558;2022-10-18T03:20:10;101201.66;;;17.44;100.00
44457;BME280;30159;49.316;8.558;2022-10-18T03:22:37;101199.75;;;17.44;100.00
44457;BME280;30159;49.316;8.558;2022-10-18T03:25:04;101196.00;;;17.40;100.00
44457;BME280;30159;49.316;8.558;2022-10-18T03:27:30;101192.78;;;17.38;100.00
44457;BME280;30159;49.316;8.558;2022-10-18T03:29:57;101206.78;;;17.45;100.00
44457;BME280;30159;49.316;8.558;2022-10-18T03:32:25;101182.59;;;17.30;100.00
44457;BME280;30159;49.316;8.558;2022-10-18T03:34:51;101194.00;;;17.32;100.00
44457;BME280;30159;49.316;8.558;2022-10-18T03:37:19;101203.91;;;17.28;100.00
44457;BME280;30159;49.316;8.558;2022-10-18T03:39:46;101199.66;;;17.22;100.00
44457;BME280;30159;49.316;8.558;2022-10-18T03:42:12;101213.09;;;17.18;100.00
44457;BME280;30159;49.316;8.558;2022-10-18T03:44:39;101217.72;;;17.18;100.00
44457;BME280;30159;49.316;8.558;2022-10-18T03:47:05;101218.56;;;17.18;100.00
44457;BME280;30159;49.316;8.558;2022-10-18T03:49:32;101224.59;;;17.15;100.00
44457;BME280;30159;49.316;8.558;2022-10-18T03:51:58;101199.06;;;16.97;100.00
44457;BME280;30159;49.316;8.558;2022-10-18T03:54:26;101234.53;;;17.11;100.00
44457;BME280;30159;49.316;8.558;2022-10-18T03:56:52;101228.84;;;17.08;100.00
44457;BME280;30159;49.316;8.558;2022-10-18T03:59:19;101221.97;;;17.10;100.00
44457;BME280;30159;49.316;8.558;2022-10-18T04:01:46;101236.63;;;17.14;100.00
44457;BME280;30159;49.316;8.558;2022-10-18T04:04:13;101234.13;;;17.04;100.00
44457;BME280;30159;49.316;8.558;2022-10-18T04:06:40;101233.28;;;17.03;100.00
44457;BME280;30159;49.316;8.558;2022-10-18T04:09:07;101190.47;;;16.76;100.00
44457;BME280;30159;49.316;8.558;2022-10-18T04:11:35;101240.53;;;16.94;100.00
44457;BME280;30159;49.316;8.558;2022-10-18T04:14:02;101229.84;;;16.98;100.00
44457;BME280;30159;49.316;8.558;2022-10-18T04:16:29;101231.56;;;16.94;100.00
44457;BME280;30159;49.316;8.558;2022-10-18T04:18:55;101230.88;;;17.02;100.00
44457;BME280;30159;49.316;8.558;2022-10-18T04:21:22;101231.69;;;17.02;100.00
44457;BME280;30159;49.316;8.558;2022-10-18T04:23:49;101233.50;;;17.07;100.00
44457;BME280;30159;49.316;8.558;2022-10-18T04:26:16;101227.84;;;17.03;100.00
44457;BME280;30159;49.316;8.558;2022-10-18T04:28:44;101241.28;;;17.14;100.00
44457;BME280;30159;49.316;8.558;2022-10-18T04:31:11;101243.50;;;17.12;100.00
44457;BME280;30159;49.316;8.558;2022-10-18T04:33:37;101216.75;;;17.00;100.00
44457;BME280;30159;49.316;8.558;2022-10-18T04:36:04;101246.34;;;17.20;100.00
44457;BME280;30159;49.316;8.558;2022-10-18T04:38:31;101247.81;;;17.26;100.00
44457;BME280;30159;49.316;8.558;2022-10-18T04:40:58;101249.66;;;17.31;100.00
44457;BME280;30159;49.316;8.558;2022-10-18T04:43:24;101257.13;;;17.25;100.00
44457;BME280;30159;49.316;8.558;2022-10-18T04:45:52;101249.25;;;17.38;100.00
44457;BME280;30159;49.316;8.558;2022-10-18T04:48:21;101260.66;;;17.26;100.00
44457;BME280;30159;49.316;8.558;2022-10-18T04:50:48;101258.16;;;17.16;100.00
44457;BME280;30159;49.316;8.558;2022-10-18T04:53:15;101255.72;;;17.28;100.00
44457;BME280;30159;49.316;8.558;2022-10-18T04:55:42;101249.25;;;17.38;100.00
44457;BME280;30159;49.316;8.558;2022-10-18T04:58:09;101244.91;;;17.37;100.00
44457;BME280;30159;49.316;8.558;2022-10-18T05:00:36;101259.25;;;17.42;100.00
44457;BME280;30159;49.316;8.558;2022-10-18T05:03:04;101268.53;;;17.14;100.00
44457;BME280;30159;49.316;8.558;2022-10-18T05:05:30;101262.75;;;17.01;100.00
44457;BME280;30159;49.316;8.558;2022-10-18T05:07:57;101267.00;;;16.94;100.00
44457;BME280;30159;49.316;8.558;2022-10-18T05:10:23;101263.19;;;16.95;100.00
44457;BME280;30159;49.316;8.558;2022-10-18T05:12:50;101260.31;;;16.86;100.00
44457;BME280;30159;49.316;8.558;2022-10-18T05:15:17;101265.16;;;16.89;100.00
44457;BME280;30159;49.316;8.558;2022-10-18T05:17:43;101271.38;;;17.09;100.00
44457;BME280;30159;49.316;8.558;2022-10-18T05:20:11;101261.28;;;17.23;100.00
44457;BME280;30159;49.316;8.558;2022-10-18T05:22:38;101246.22;;;17.12;100.00
44457;BME280;30159;49.316;8.558;2022-10-18T05:25:05;101264.81;;;17.23;100.00
44457;BME280;30159;49.316;8.558;2022-10-18T05:27:32;101245.00;;;17.32;100.00
44457;BME280;30159;49.316;8.558;2022-10-18T05:29:58;101246.00;;;17.49;100.00
44457;BME280;30159;49.316;8.558;2022-10-18T05:32:25;101186.16;;;17.03;100.00
44457;BME280;30159;49.316;8.558;2022-10-18T05:34:52;101254.09;;;17.41;100.00
44457;BME280;30159;49.316;8.558;2022-10-18T05:37:20;101254.81;;;17.46;100.00
44457;BME280;30159;49.316;8.558;2022-10-18T05:39:46;101252.47;;;17.54;100.00
44457;BME280;30159;49.316;8.558;2022-10-18T05:42:13;101267.00;;;17.49;100.00
44457;BME280;30159;49.316;8.558;2022-10-18T05:44:39;101257.69;;;17.64;100.00
44457;BME280;30159;49.316;8.558;2022-10-18T05:47:06;101260.31;;;17.69;100.00
44457;BME280;30159;49.316;8.558;2022-10-18T05:49:32;101257.00;;;17.72;100.00
44457;BME280;30159;49.316;8.558;2022-10-18T05:52:00;101272.44;;;17.77;100.00
44457;BME280;30159;49.316;8.558;2022-10-18T05:54:28;101261.19;;;17.78;100.00
44457;BME280;30159;49.316;8.558;2022-10-18T05:56:54;101263.38;;;17.81;100.00
44457;BME280;30159;49.316;8.558;2022-10-18T05:59:21;101256.38;;;17.75;100.00
44457;BME280;30159;49.316;8.558;2022-10-18T06:01:48;101255.97;;;17.82;100.00
44457;BME280;30159;49.316;8.558;2022-10-18T06:04:14;101253.25;;;17.82;100.00
44457;BME280;30159;49.316;8.558;2022-10-18T06:06:42;101259.09;;;17.75;100.00
44457;BME280;30159;49.316;8.558;2022-10-18T06:09:09;101252.75;;;17.66;100.00
44457;BME280;30159;49.316;8.558;2022-10-18T06:11:37;101251.13;;;17.65;100.00
44457;BME280;30159;49.316;8.558;2022-10-18T06:14:03;101243.53;;;17.76;100.00
44457;BME280;30159;49.316;8.558;2022-10-18T06:16:30;101246.56;;;17.74;100.00
44457;BME280;30159;49.316;8.558;2022-10-18T06:18:57;101257.28;;;17.70;100.00
44457;BME280;30159;49.316;8.558;2022-10-18T06:21:24;101263.75;;;17.75;100.00
44457;BME280;30159;49.316;8.558;2022-10-18T06:23:52;101265.34;;;17.76;100.00
44457;BME280;30159;49.316;8.558;2022-10-18T06:26:19;101268.81;;;17.81;100.00
44457;BME280;30159;49.316;8.558;2022-10-18T06:28:47;101265.97;;;17.86;100.00
44457;BME280;30159;49.316;8.558;2022-10-18T06:31:14;101260.91;;;17.94;100.00
44457;BME280;30159;49.316;8.558;2022-10-18T06:33:40;101202.13;;;17.60;100.00
44457;BME280;30159;49.316;8.558;2022-10-18T06:36:10;101263.38;;;18.04;100.00
44457;BME280;30159;49.316;8.558;2022-10-18T06:38:37;101273.88;;;18.10;100.00
44457;BME280;30159;49.316;8.558;2022-10-18T06:41:04;101265.91;;;18.14;100.00
44457;BME280;30159;49.316;8.558;2022-10-18T06:43:31;101261.66;;;18.08;100.00
44457;BME280;30159;49.316;8.558;2022-10-18T06:46:02;101271.81;;;17.94;100.00
44457;BME280;30159;49.316;8.558;2022-10-18T06:48:31;101278.41;;;17.93;100.00
44457;BME280;30159;49.316;8.558;2022-10-18T06:50:59;101278.28;;;17.98;100.00
44457;BME280;30159;49.316;8.558;2022-10-18T06:53:27;101280.09;;;18.02;100.00
44457;BME280;30159;49.316;8.558;2022-10-18T06:55:58;101282.69;;;18.07;100.00
44457;BME280;30159;49.316;8.558;2022-10-18T06:58:24;101293.63;;;18.07;100.00
44457;BME280;30159;49.316;8.558;2022-10-18T07:00:51;101282.94;;;18.20;100.00
44457;BME280;30159;49.316;8.558;2022-10-18T07:03:18;101290.59;;;18.31;100.00
44457;BME280;30159;49.316;8.558;2022-10-18T07:05:45;101289.25;;;18.43;100.00
44457;BME280;30159;49.316;8.558;2022-10-18T07:08:12;101297.06;;;18.58;100.00
44457;BME280;30159;49.316;8.558;2022-10-18T07:10:39;101303.28;;;18.72;100.00
44457;BME280;30159;49.316;8.558;2022-10-18T07:13:05;101294.53;;;18.84;100.00
44457;BME280;30159;49.316;8.558;2022-10-18T07:15:32;101302.94;;;18.97;100.00
44457;BME280;30159;49.316;8.558;2022-10-18T07:18:02;101309.91;;;19.03;100.00
44457;BME280;30159;49.316;8.558;2022-10-18T07:20:30;101317.03;;;19.12;100.00
44457;BME280;30159;49.316;8.558;2022-10-18T07:22:57;101326.97;;;19.08;100.00
44457;BME280;30159;49.316;8.558;2022-10-18T07:25:23;101329.03;;;19.03;100.00
44457;BME280;30159;49.316;8.558;2022-10-18T07:27:50;101323.66;;;18.89;100.00
44457;BME280;30159;49.316;8.558;2022-10-18T07:30:16;101325.91;;;18.87;100.00
44457;BME280;30159;49.316;8.558;2022-10-18T07:32:43;101317.44;;;18.74;100.00
44457;BME280;30159;49.316;8.558;2022-10-18T07:35:09;101329.88;;;18.81;100.00
44457;BME280;30159;49.316;8.558;2022-10-18T07:37:37;101334.72;;;18.84;100.00
44457;BME280;30159;49.316;8.558;2022-10-18T07:40:04;101303.63;;;18.57;100.00
44457;BME280;30159;49.316;8.558;2022-10-18T07:42:33;101337.66;;;18.73;100.00
44457;BME280;30159;49.316;8.558;2022-10-18T07:45:00;101353.09;;;18.69;100.00
44457;BME280;30159;49.316;8.558;2022-10-18T07:47:26;101362.44;;;18.54;100.00
44457;BME280;30159;49.316;8.558;2022-10-18T07:49:53;101346.25;;;18.58;100.00
44457;BME280;30159;49.316;8.558;2022-10-18T07:52:19;101354.31;;;18.63;100.00
44457;BME280;30159;49.316;8.558;2022-10-18T07:54:47;101356.31;;;18.71;100.00
44457;BME280;30159;49.316;8.558;2022-10-18T07:57:14;101361.06;;;18.80;100.00
44457;BME280;30159;49.316;8.558;2022-10-18T07:59:40;101353.50;;;18.77;100.00
44457;BME280;30159;49.316;8.558;2022-10-18T08:02:10;101354.31;;;18.77;100.00
44457;BME280;30159;49.316;8.558;2022-10-18T08:04:37;101360.56;;;18.78;100.00
44457;BME280;30159;49.316;8.558;2022-10-18T08:07:03;101380.09;;;18.71;100.00
44457;BME280;30159;49.316;8.558;2022-10-18T08:09:30;101350.16;;;18.66;100.00
44457;BME280;30159;49.316;8.558;2022-10-18T08:11:58;101354.06;;;18.73;100.00
44457;BME280;30159;49.316;8.558;2022-10-18T08:14:25;101350.03;;;18.71;100.00
44457;BME280;30159;49.316;8.558;2022-10-18T08:16:51;101353.16;;;18.78;100.00
44457;BME280;30159;49.316;8.558;2022-10-18T08:19:18;101358.06;;;18.90;100.00
44457;BME280;30159;49.316;8.558;2022-10-18T08:21:44;101360.88;;;18.99;100.00
44457;BME280;30159;49.316;8.558;2022-10-18T08:24:11;101356.75;;;19.10;100.00
44457;BME280;30159;49.316;8.558;2022-10-18T08:26:37;101368.59;;;19.28;100.00
44457;BME280;30159;49.316;8.558;2022-10-18T08:29:05;101359.47;;;19.41;100.00
44457;BME280;30159;49.316;8.558;2022-10-18T08:31:32;101362.75;;;19.52;100.00
44457;BME280;30159;49.316;8.558;2022-10-18T08:33:58;101373.22;;;19.58;100.00
44457;BME280;30159;49.316;8.558;2022-10-18T08:36:25;101368.88;;;19.57;100.00
44457;BME280;30159;49.316;8.558;2022-10-18T08:38:51;101362.69;;;19.43;100.00
44457;BME280;30159;49.316;8.558;2022-10-18T08:41:27;101377.03;;;19.40;100.00
44457;BME280;30159;49.316;8.558;2022-10-18T08:44:06;101372.88;;;19.51;100.00
44457;BME280;30159;49.316;8.558;2022-10-18T08:46:40;101366.13;;;19.57;100.00
44457;BME280;30159;49.316;8.558;2022-10-18T08:49:10;101379.84;;;19.66;100.00
44457;BME280;30159;49.316;8.558;2022-10-18T08:51:45;101369.16;;;19.87;100.00
44457;BME280;30159;49.316;8.558;2022-10-18T08:54:19;101375.63;;;20.09;100.00
44457;BME280;30159;49.316;8.558;2022-10-18T08:56:57;101373.28;;;20.33;100.00
44457;BME280;30159;49.316;8.558;2022-10-18T08:59:28;101373.75;;;20.44;100.00
44457;BME280;30159;49.316;8.558;2022-10-18T09:02:02;101372.50;;;20.59;100.00
44457;BME280;30159;49.316;8.558;2022-10-18T09:04:39;101371.66;;;20.76;100.00
44457;BME280;30159;49.316;8.558;2022-10-18T09:07:38;101375.38;;;20.89;100.00
44457;BME280;30159;49.316;8.558;2022-10-18T09:10:18;101379.66;;;21.07;100.00
44457;BME280;30159;49.316;8.558;2022-10-18T09:13:04;101382.75;;;21.14;100.00
44457;BME280;30159;49.316;8.558;2022-10-18T09:15:40;101378.78;;;21.50;100.00
44457;BME280;30159;49.316;8.558;2022-10-18T09:18:18;101383.53;;;21.71;100.00
44457;BME280;30159;49.316;8.558;2022-10-18T09:20:55;101385.25;;;21.37;100.00
44457;BME280;30159;49.316;8.558;2022-10-18T09:23:30;101378.53;;;21.17;100.00
44457;BME280;30159;49.316;8.558;2022-10-18T09:26:09;101385.81;;;21.13;100.00
44457;BME280;30159;49.316;8.558;2022-10-18T09:28:43;101390.44;;;21.21;100.00
44457;BME280;30159;49.316;8.558;2022-10-18T09:31:18;101382.88;;;21.26;100.00
44457;BME280;30159;49.316;8.558;2022-10-18T09:33:53;101387.50;;;21.35;100.00
44457;BME280;30159;49.316;8.558;2022-10-18T09:36:23;101356.72;;;21.20;100.00
44457;BME280;30159;49.316;8.558;2022-10-18T09:38:53;101340.50;;;20.98;100.00
44457;BME280;30159;49.316;8.558;2022-10-18T09:41:23;101329.88;;;20.88;100.00
44457;BME280;30159;49.316;8.558;2022-10-18T09:43:54;101336.50;;;20.69;100.00
44457;BME280;30159;49.316;8.558;2022-10-18T09:46:26;101385.34;;;21.02;100.00
44457;BME280;30159;49.316;8.558;2022-10-18T09:48:58;101388.44;;;21.00;100.00
44457;BME280;30159;49.316;8.558;2022-10-18T09:51:30;101380.50;;;20.99;100.00
44457;BME280;30159;49.316;8.558;2022-10-18T09:54:07;101393.03;;;21.26;100.00
44457;BME280;30159;49.316;8.558;2022-10-18T09:56:41;101393.47;;;21.54;100.00
44457;BME280;30159;49.316;8.558;2022-10-18T09:59:22;101382.97;;;21.56;100.00
44457;BME280;30159;49.316;8.558;2022-10-18T10:01:54;101388.97;;;21.32;100.00
44457;BME280;30159;49.316;8.558;2022-10-18T10:04:21;101399.31;;;21.35;100.00
44457;BME280;30159;49.316;8.558;2022-10-18T10:06:48;101395.06;;;21.55;100.00
44457;BME280;30159;49.316;8.558;2022-10-18T10:09:16;101411.56;;;21.85;100.00
44457;BME280;30159;49.316;8.558;2022-10-18T10:11:45;101392.94;;;21.91;100.00
44457;BME280;30159;49.316;8.558;2022-10-18T10:14:14;101416.59;;;22.13;100.00
44457;BME280;30159;49.316;8.558;2022-10-18T10:16:47;101416.22;;;22.23;97.73
44457;BME280;30159;49.316;8.558;2022-10-18T10:19:18;101418.16;;;22.22;97.74
44457;BME280;30159;49.316;8.558;2022-10-18T10:21:46;101422.00;;;22.30;97.08
44457;BME280;30159;49.316;8.558;2022-10-18T10:24:20;101423.13;;;21.99;100.00
44457;BME280;30159;49.316;8.558;2022-10-18T10:26:49;101416.53;;;22.21;99.86
44457;BME280;30159;49.316;8.558;2022-10-18T10:32:20;101424.56;;;22.05;99.40
44457;BME280;30159;49.316;8.558;2022-10-18T10:34:48;101424.84;;;22.13;99.68
44457;BME280;30159;49.316;8.558;2022-10-18T10:37:33;101420.28;;;21.87;95.22
44457;BME280;30159;49.316;8.558;2022-10-18T10:40:12;101421.81;;;21.67;98.97
44457;BME280;30159;49.316;8.558;2022-10-18T10:42:51;101421.31;;;21.74;98.17
44457;BME280;30159;49.316;8.558;2022-10-18T10:45:19;101362.16;;;21.38;97.32
44457;BME280;30159;49.316;8.558;2022-10-18T10:47:46;101403.63;;;22.22;97.24
44457;BME280;30159;49.316;8.558;2022-10-18T10:50:22;101422.50;;;22.86;96.56
44457;BME280;30159;49.316;8.558;2022-10-18T10:52:49;101412.91;;;23.26;91.32
44457;BME280;30159;49.316;8.558;2022-10-18T10:55:18;101414.69;;;23.55;90.52
44457;BME280;30159;49.316;8.558;2022-10-18T10:57:47;101415.63;;;23.59;89.20
44457;BME280;30159;49.316;8.558;2022-10-18T11:00:42;101412.03;;;23.59;88.61
44457;BME280;30159;49.316;8.558;2022-10-18T11:03:12;101414.69;;;23.43;88.45
44457;BME280;30159;49.316;8.558;2022-10-18T11:05:45;101417.09;;;23.44;88.45
44457;BME280;30159;49.316;8.558;2022-10-18T11:08:14;101421.25;;;23.63;88.32
44457;BME280;30159;49.316;8.558;2022-10-18T11:10:49;101415.03;;;23.66;88.58
44457;BME280;30159;49.316;8.558;2022-10-18T11:13:26;101413.91;;;23.54;89.05
44457;BME280;30159;49.316;8.558;2022-10-18T11:15:58;101416.84;;;23.49;89.11
44457;BME280;30159;49.316;8.558;2022-10-18T11:18:29;101417.91;;;23.57;90.61
44457;BME280;30159;49.316;8.558;2022-10-18T11:21:01;101408.84;;;23.69;88.91
44457;BME280;30159;49.316;8.558;2022-10-18T11:23:33;101416.03;;;23.37;88.10
44457;BME280;30159;49.316;8.558;2022-10-18T11:26:24;101410.47;;;23.12;91.98
44457;BME280;30159;49.316;8.558;2022-10-18T11:29:04;101404.31;;;23.15;91.73
44457;BME280;30159;49.316;8.558;2022-10-18T11:31:41;101410.22;;;23.05;87.28
44457;BME280;30159;49.316;8.558;2022-10-18T11:34:22;101417.16;;;22.69;90.62
44457;BME280;30159;49.316;8.558;2022-10-18T11:36:59;101403.00;;;22.58;90.12
44457;BME280;30159;49.316;8.558;2022-10-18T11:39:41;101401.28;;;22.54;92.14
44457;BME280;30159;49.316;8.558;2022-10-18T11:42:17;101401.56;;;22.94;89.34
44457;BME280;30159;49.316;8.558;2022-10-18T11:44:52;101379.16;;;23.04;90.94
44457;BME280;30159;49.316;8.558;2022-10-18T11:47:26;101386.16;;;23.02;86.87
44457;BME280;30159;49.316;8.558;2022-10-18T11:50:04;101340.06;;;22.23;87.71
44457;BME280;30159;49.316;8.558;2022-10-18T11:52:40;101388.59;;;22.82;92.17
44457;BME280;30159;49.316;8.558;2022-10-18T11:55:22;101386.16;;;23.02;89.86
44457;BME280;30159;49.316;8.558;2022-10-18T11:57:57;101382.41;;;22.98;90.04
44457;BME280;30159;49.316;8.558;2022-10-18T12:00:36;101385.03;;;22.61;90.68
44457;BME280;30159;49.316;8.558;2022-10-18T12:03:26;101388.03;;;22.68;90.05
44457;BME280;30159;49.316;8.558;2022-10-18T12:05:57;101386.38;;;22.76;89.82
44457;BME280;30159;49.316;8.558;2022-10-18T12:08:32;101379.22;;;22.62;87.20
44457;BME280;30159;49.316;8.558;2022-10-18T12:11:07;101387.75;;;22.19;88.02
44457;BME280;30159;49.316;8.558;2022-10-18T12:13:38;101331.16;;;21.76;90.62
44457;BME280;30159;49.316;8.558;2022-10-18T12:16:07;101374.16;;;22.01;89.01
44457;BME280;30159;49.316;8.558;2022-10-18T12:18:35;101313.09;;;21.36;90.46
44457;BME280;30159;49.316;8.558;2022-10-18T12:21:06;101258.75;;;20.82;91.35
44457;BME280;30159;49.316;8.558;2022-10-18T12:23:41;101377.56;;;21.68;92.22
44457;BME280;30159;49.316;8.558;2022-10-18T12:26:10;101374.81;;;21.68;91.92
44457;BME280;30159;49.316;8.558;2022-10-18T12:28:45;101373.09;;;21.55;92.30
44457;BME280;30159;49.316;8.558;2022-10-18T12:31:24;101381.84;;;21.49;93.34
44457;BME280;30159;49.316;8.558;2022-10-18T12:33:54;101381.19;;;21.52;93.48
44457;BME280;30159;49.316;8.558;2022-10-18T12:36:37;101375.25;;;21.41;93.41
44457;BME280;30159;49.316;8.558;2022-10-18T12:39:11;101370.34;;;21.55;94.24
44457;BME280;30159;49.316;8.558;2022-10-18T12:41:45;101369.31;;;21.68;92.75
44457;BME280;30159;49.316;8.558;2022-10-18T12:44:18;101353.34;;;21.62;91.80
44457;BME280;30159;49.316;8.558;2022-10-18T12:46:48;101370.56;;;21.80;90.69
44457;BME280;30159;49.316;8.558;2022-10-18T12:49:18;101375.19;;;21.88;91.89
44457;BME280;30159;49.316;8.558;2022-10-18T12:51:51;101375.38;;;21.83;90.69
44457;BME280;30159;49.316;8.558;2022-10-18T12:54:22;101370.28;;;21.73;91.34
44457;BME280;30159;49.316;8.558;2022-10-18T12:56:50;101369.31;;;21.68;91.71
44457;BME280;30159;49.316;8.558;2022-10-18T12:59:50;101381.09;;;21.69;90.79
44457;BME280;30159;49.316;8.558;2022-10-18T13:02:21;101380.81;;;21.62;91.26